sensor_id;sensor_type;location;lat;lon;timestamp;temperature;humidity
16785;DHT22;8509;52.178;5.404;2023-08-24T00:02:02;17.60;99.90
16785;DHT22;8509;52.178;5.404;2023-08-24T00:04:28;17.60;99.90
16785;DHT22;8509;52.178;5.404;2023-08-24T00:06:54;17.50;99.90
16785;DHT22;8509;52.178;5.404;2023-08-24T00:09:20;17.60;99.90
16785;DHT22;8509;52.178;5.404;2023-08-24T00:11:46;17.50;99.90
16785;DHT22;8509;52.178;5.404;2023-08-24T00:14:13;17.50;99.90
16785;DHT22;8509;52.178;5.404;2023-08-24T00:16:38;17.50;99.90
16785;DHT22;8509;52.178;5.404;2023-08-24T00:19:04;17.50;99.90
16785;DHT22;8509;52.178;5.404;2023-08-24T00:21:30;17.50;99.90
16785;DHT22;8509;52.178;5.404;2023-08-24T00:23:56;17.50;99.90
16785;DHT22;8509;52.178;5.404;2023-08-24T00:26:22;17.50;99.90
16785;DHT22;8509;52.178;5.404;2023-08-24T00:28:48;17.40;99.90
16785;DHT22;8509;52.178;5.404;2023-08-24T00:31:15;17.40;99.90
16785;DHT22;8509;52.178;5.404;2023-08-24T00:33:41;17.50;99.90
16785;DHT22;8509;52.178;5.404;2023-08-24T00:36:07;17.50;99.90
16785;DHT22;8509;52.178;5.404;2023-08-24T00:38:33;17.50;99.90
16785;DHT22;8509;52.178;5.404;2023-08-24T00:40:59;17.60;99.90
16785;DHT22;8509;52.178;5.404;2023-08-24T00:43:28;17.50;99.90
16785;DHT22;8509;52.178;5.404;2023-08-24T00:45:59;17.60;99.90
16785;DHT22;8509;52.178;5.404;2023-08-24T00:48:26;17.60;99.90
16785;DHT22;8509;52.178;5.404;2023-08-24T00:51:02;17.60;99.90
16785;DHT22;8509;52.178;5.404;2023-08-24T00:53:30;17.60;99.90
16785;DHT22;8509;52.178;5.404;2023-08-24T00:55:56;17.60;99.90
16785;DHT22;8509;52.178;5.404;2023-08-24T00:58:23;17.60;99.90
16785;DHT22;8509;52.178;5.404;2023-08-24T01:00:53;17.70;99.90
16785;DHT22;8509;52.178;5.404;2023-08-24T01:03:21;17.70;99.90
16785;DHT22;8509;52.178;5.404;2023-08-24T01:05:47;17.60;99.90
16785;DHT22;8509;52.178;5.404;2023-08-24T01:08:13;17.50;99.90
16785;DHT22;8509;52.178;5.404;2023-08-24T01:10:48;17.50;99.90
16785;DHT22;8509;52.178;5.404;2023-08-24T01:13:24;17.50;99.90
16785;DHT22;8509;52.178;5.404;2023-08-24T01:16:05;17.50;99.90
16785;DHT22;8509;52.178;5.404;2023-08-24T01:18:33;17.40;99.90
16785;DHT22;8509;52.178;5.404;2023-08-24T01:21:02;17.50;99.90
16785;DHT22;8509;52.178;5.404;2023-08-24T01:23:36;17.50;99.90
16785;DHT22;8509;52.178;5.404;2023-08-24T01:26:16;17.50;99.90
16785;DHT22;8509;52.178;5.404;2023-08-24T01:28:43;17.50;99.90
16785;DHT22;8509;52.178;5.404;2023-08-24T01:31:09;17.50;99.90
16785;DHT22;8509;52.178;5.404;2023-08-24T01:33:35;17.50;99.90
16785;DHT22;8509;52.178;5.404;2023-08-24T01:36:01;17.40;99.90
16785;DHT22;8509;52.178;5.404;2023-08-24T01:38:27;17.40;99.90
16785;DHT22;8509;52.178;5.404;2023-08-24T01:41:17;17.40;99.90
16785;DHT22;8509;52.178;5.404;2023-08-24T01:43:46;17.40;99.90
16785;DHT22;8509;52.178;5.404;2023-08-24T01:46:15;17.40;99.90
16785;DHT22;8509;52.178;5.404;2023-08-24T01:48:43;17.40;99.90
16785;DHT22;8509;52.178;5.404;2023-08-24T01:51:10;17.50;99.90
16785;DHT22;8509;52.178;5.404;2023-08-24T01:53:36;17.50;99.90
16785;DHT22;8509;52.178;5.404;2023-08-24T01:56:15;17.50;99.90
16785;DHT22;8509;52.178;5.404;2023-08-24T01:58:41;17.60;99.90
16785;DHT22;8509;52.178;5.404;2023-08-24T02:01:08;17.60;99.90
16785;DHT22;8509;52.178;5.404;2023-08-24T02:03:33;17.60;99.90
16785;DHT22;8509;52.178;5.404;2023-08-24T02:05:59;17.60;99.90
16785;DHT22;8509;52.178;5.404;2023-08-24T02:08:25;17.70;99.90
16785;DHT22;8509;52.178;5.404;2023-08-24T02:10:51;17.70;99.90
16785;DHT22;8509;52.178;5.404;2023-08-24T02:13:16;17.70;99.90
16785;DHT22;8509;52.178;5.404;2023-08-24T02:15:42;17.70;99.90
16785;DHT22;8509;52.178;5.404;2023-08-24T02:18:07;17.70;99.90
16785;DHT22;8509;52.178;5.404;2023-08-24T02:20:37;17.70;99.90
16785;DHT22;8509;52.178;5.404;2023-08-24T02:23:04;17.60;99.90
16785;DHT22;8509;52.178;5.404;2023-08-24T02:25:29;17.60;99.90
16785;DHT22;8509;52.178;5.404;2023-08-24T02:27:55;17.60;99.90
16785;DHT22;8509;52.178;5.404;2023-08-24T02:30:21;17.60;99.90
16785;DHT22;8509;52.178;5.404;2023-08-24T02:32:46;17.60;99.90
16785;DHT22;8509;52.178;5.404;2023-08-24T02:35:12;17.60;99.90
16785;DHT22;8509;52.178;5.404;2023-08-24T02:37:38;17.60;99.90
16785;DHT22;8509;52.178;5.404;2023-08-24T02:40:04;17.60;99.90
16785;DHT22;8509;52.178;5.404;2023-08-24T02:42:31;17.60;99.90
16785;DHT22;8509;52.178;5.404;2023-08-24T02:44:58;17.60;99.90
16785;DHT22;8509;52.178;5.404;2023-08-24T02:47:23;17.50;99.90
16785;DHT22;8509;52.178;5.404;2023-08-24T02:49:49;17.50;99.90
16785;DHT22;8509;52.178;5.404;2023-08-24T02:52:15;17.50;99.90
16785;DHT22;8509;52.178;5.404;2023-08-24T02:54:40;17.50;99.90
16785;DHT22;8509;52.178;5.404;2023-08-24T02:57:06;17.40;99.90
16785;DHT22;8509;52.178;5.404;2023-08-24T02:59:32;17.30;99.90
16785;DHT22;8509;52.178;5.404;2023-08-24T03:01:57;17.30;99.90
16785;DHT22;8509;52.178;5.404;2023-08-24T03:04:23;17.30;99.90
16785;DHT22;8509;52.178;5.404;2023-08-24T03:06:49;17.30;99.90
16785;DHT22;8509;52.178;5.404;2023-08-24T03:09:15;17.30;99.90
16785;DHT22;8509;52.178;5.404;2023-08-24T03:11:41;17.20;99.90
16785;DHT22;8509;52.178;5.404;2023-08-24T03:14:07;17.20;99.90
16785;DHT22;8509;52.178;5.404;2023-08-24T03:16:32;17.20;99.90
16785;DHT22;8509;52.178;5.404;2023-08-24T03:18:58;17.20;99.90
16785;DHT22;8509;52.178;5.404;2023-08-24T03:21:24;17.20;99.90
16785;DHT22;8509;52.178;5.404;2023-08-24T03:23:49;17.10;99.90
16785;DHT22;8509;52.178;5.404;2023-08-24T03:26:15;17.10;99.90
16785;DHT22;8509;52.178;5.404;2023-08-24T03:28:42;17.00;99.90
16785;DHT22;8509;52.178;5.404;2023-08-24T03:31:08;17.00;99.90
16785;DHT22;8509;52.178;5.404;2023-08-24T03:33:34;16.90;99.90
16785;DHT22;8509;52.178;5.404;2023-08-24T03:36:00;16.90;99.90
16785;DHT22;8509;52.178;5.404;2023-08-24T03:38:27;16.90;99.90
16785;DHT22;8509;52.178;5.404;2023-08-24T03:41:00;16.80;99.90
16785;DHT22;8509;52.178;5.404;2023-08-24T03:43:26;16.80;99.90
16785;DHT22;8509;52.178;5.404;2023-08-24T03:45:51;16.70;99.90
16785;DHT22;8509;52.178;5.404;2023-08-24T03:48:17;16.70;99.90
16785;DHT22;8509;52.178;5.404;2023-08-24T03:50:43;16.70;99.90
16785;DHT22;8509;52.178;5.404;2023-08-24T03:53:10;16.60;99.90
16785;DHT22;8509;52.178;5.404;2023-08-24T03:55:35;16.60;99.90
16785;DHT22;8509;52.178;5.404;2023-08-24T03:58:01;16.60;99.90
16785;DHT22;8509;52.178;5.404;2023-08-24T04:00:27;16.60;99.90
16785;DHT22;8509;52.178;5.404;2023-08-24T04:02:52;16.60;99.90
16785;DHT22;8509;52.178;5.404;2023-08-24T04:05:20;16.60;99.90
16785;DHT22;8509;52.178;5.404;2023-08-24T04:07:46;16.60;99.90
16785;DHT22;8509;52.178;5.404;2023-08-24T04:10:12;16.70;99.90
16785;DHT22;8509;52.178;5.404;2023-08-24T04:12:38;16.60;99.90
16785;DHT22;8509;52.178;5.404;2023-08-24T04:15:04;16.60;99.90
16785;DHT22;8509;52.178;5.404;2023-08-24T04:17:30;16.60;99.90
16785;DHT22;8509;52.178;5.404;2023-08-24T04:19:56;16.60;99.90
16785;DHT22;8509;52.178;5.404;2023-08-24T04:22:22;16.60;99.90
16785;DHT22;8509;52.178;5.404;2023-08-24T04:24:47;16.60;99.90
16785;DHT22;8509;52.178;5.404;2023-08-24T04:27:14;16.60;99.90
16785;DHT22;8509;52.178;5.404;2023-08-24T04:29:40;16.60;99.90
16785;DHT22;8509;52.178;5.404;2023-08-24T04:32:06;16.60;99.90
16785;DHT22;8509;52.178;5.404;2023-08-24T04:34:31;16.50;99.90
16785;DHT22;8509;52.178;5.404;2023-08-24T04:36:57;16.50;99.90
16785;DHT22;8509;52.178;5.404;2023-08-24T04:39:23;16.60;99.90
16785;DHT22;8509;52.178;5.404;2023-08-24T04:41:50;16.50;99.90
16785;DHT22;8509;52.178;5.404;2023-08-24T04:44:15;16.50;99.90
16785;DHT22;8509;52.178;5.404;2023-08-24T04:46:41;16.50;99.90
16785;DHT22;8509;52.178;5.404;2023-08-24T04:49:07;16.50;99.90
16785;DHT22;8509;52.178;5.404;2023-08-24T04:51:32;16.50;99.90
16785;DHT22;8509;52.178;5.404;2023-08-24T04:53:58;16.40;99.90
16785;DHT22;8509;52.178;5.404;2023-08-24T04:56:25;16.50;99.90
16785;DHT22;8509;52.178;5.404;2023-08-24T04:58:57;16.60;99.90
16785;DHT22;8509;52.178;5.404;2023-08-24T05:01:26;16.60;99.90
16785;DHT22;8509;52.178;5.404;2023-08-24T05:03:53;16.60;99.90
16785;DHT22;8509;52.178;5.404;2023-08-24T05:06:20;16.70;99.90
16785;DHT22;8509;52.178;5.404;2023-08-24T05:08:46;16.70;99.90
16785;DHT22;8509;52.178;5.404;2023-08-24T05:11:18;16.80;99.90
16785;DHT22;8509;52.178;5.404;2023-08-24T05:13:44;16.80;99.90
16785;DHT22;8509;52.178;5.404;2023-08-24T05:16:10;16.90;99.90
16785;DHT22;8509;52.178;5.404;2023-08-24T05:18:36;16.90;99.90
16785;DHT22;8509;52.178;5.404;2023-08-24T05:21:05;16.90;99.90
16785;DHT22;8509;52.178;5.404;2023-08-24T05:23:32;17.00;99.90
16785;DHT22;8509;52.178;5.404;2023-08-24T05:25:59;17.00;99.90
16785;DHT22;8509;52.178;5.404;2023-08-24T05:28:27;17.10;99.90
16785;DHT22;8509;52.178;5.404;2023-08-24T05:30:54;17.10;99.90
16785;DHT22;8509;52.178;5.404;2023-08-24T05:33:21;17.20;99.90
16785;DHT22;8509;52.178;5.404;2023-08-24T05:35:47;17.20;99.90
16785;DHT22;8509;52.178;5.404;2023-08-24T05:38:14;17.30;99.90
16785;DHT22;8509;52.178;5.404;2023-08-24T05:40:42;17.30;99.90
16785;DHT22;8509;52.178;5.404;2023-08-24T05:43:09;17.40;99.90
16785;DHT22;8509;52.178;5.404;2023-08-24T05:45:35;17.40;99.90
16785;DHT22;8509;52.178;5.404;2023-08-24T05:48:01;17.60;99.90
16785;DHT22;8509;52.178;5.404;2023-08-24T05:50:27;17.60;99.90
16785;DHT22;8509;52.178;5.404;2023-08-24T05:52:53;17.70;99.90
16785;DHT22;8509;52.178;5.404;2023-08-24T05:55:19;17.90;99.90
16785;DHT22;8509;52.178;5.404;2023-08-24T05:57:45;18.20;99.90
16785;DHT22;8509;52.178;5.404;2023-08-24T06:00:11;18.50;99.90
16785;DHT22;8509;52.178;5.404;2023-08-24T06:02:37;18.80;99.90
16785;DHT22;8509;52.178;5.404;2023-08-24T06:05:03;19.20;99.90
16785;DHT22;8509;52.178;5.404;2023-08-24T06:07:29;19.50;99.90
16785;DHT22;8509;52.178;5.404;2023-08-24T06:09:56;19.80;99.90
16785;DHT22;8509;52.178;5.404;2023-08-24T06:12:24;20.00;99.90
16785;DHT22;8509;52.178;5.404;2023-08-24T06:14:50;20.30;99.90
16785;DHT22;8509;52.178;5.404;2023-08-24T06:17:15;20.70;99.90
16785;DHT22;8509;52.178;5.404;2023-08-24T06:19:41;20.90;99.90
16785;DHT22;8509;52.178;5.404;2023-08-24T06:22:07;21.10;99.90
16785;DHT22;8509;52.178;5.404;2023-08-24T06:24:34;21.60;99.90
16785;DHT22;8509;52.178;5.404;2023-08-24T06:27:00;21.80;99.90
16785;DHT22;8509;52.178;5.404;2023-08-24T06:29:29;22.10;99.90
16785;DHT22;8509;52.178;5.404;2023-08-24T06:31:54;22.60;99.90
16785;DHT22;8509;52.178;5.404;2023-08-24T06:34:21;23.10;99.90
16785;DHT22;8509;52.178;5.404;2023-08-24T06:36:46;23.50;99.90
16785;DHT22;8509;52.178;5.404;2023-08-24T06:39:13;23.80;99.90
16785;DHT22;8509;52.178;5.404;2023-08-24T06:41:38;24.10;99.90
16785;DHT22;8509;52.178;5.404;2023-08-24T06:44:04;24.10;99.90
16785;DHT22;8509;52.178;5.404;2023-08-24T06:46:30;24.20;99.90
16785;DHT22;8509;52.178;5.404;2023-08-24T06:48:56;24.30;99.90
16785;DHT22;8509;52.178;5.404;2023-08-24T06:51:21;24.30;99.90
16785;DHT22;8509;52.178;5.404;2023-08-24T06:53:47;24.60;99.90
16785;DHT22;8509;52.178;5.404;2023-08-24T06:56:14;25.00;99.90
16785;DHT22;8509;52.178;5.404;2023-08-24T06:58:40;25.10;99.90
16785;DHT22;8509;52.178;5.404;2023-08-24T07:01:06;25.30;99.90
16785;DHT22;8509;52.178;5.404;2023-08-24T07:03:33;25.30;99.90
16785;DHT22;8509;52.178;5.404;2023-08-24T07:05:59;25.30;99.90
16785;DHT22;8509;52.178;5.404;2023-08-24T07:08:26;24.60;99.90
16785;DHT22;8509;52.178;5.404;2023-08-24T07:10:52;24.60;99.90
16785;DHT22;8509;52.178;5.404;2023-08-24T07:13:17;24.70;99.90
16785;DHT22;8509;52.178;5.404;2023-08-24T07:15:43;25.00;99.90
16785;DHT22;8509;52.178;5.404;2023-08-24T07:18:10;25.30;99.90
16785;DHT22;8509;52.178;5.404;2023-08-24T07:20:37;25.40;99.90
16785;DHT22;8509;52.178;5.404;2023-08-24T07:23:03;25.50;99.90
16785;DHT22;8509;52.178;5.404;2023-08-24T07:25:29;25.50;99.90
16785;DHT22;8509;52.178;5.404;2023-08-24T07:27:55;25.10;99.90
16785;DHT22;8509;52.178;5.404;2023-08-24T07:30:25;25.00;99.90
16785;DHT22;8509;52.178;5.404;2023-08-24T07:32:53;25.20;99.90
16785;DHT22;8509;52.178;5.404;2023-08-24T07:35:19;25.70;99.90
16785;DHT22;8509;52.178;5.404;2023-08-24T07:37:49;25.80;99.90
16785;DHT22;8509;52.178;5.404;2023-08-24T07:40:15;25.90;99.90
16785;DHT22;8509;52.178;5.404;2023-08-24T07:42:49;26.20;99.90
16785;DHT22;8509;52.178;5.404;2023-08-24T07:45:16;26.30;99.90
16785;DHT22;8509;52.178;5.404;2023-08-24T07:47:43;26.30;99.90
16785;DHT22;8509;52.178;5.404;2023-08-24T07:50:09;26.20;99.90
16785;DHT22;8509;52.178;5.404;2023-08-24T07:52:37;26.10;99.90
16785;DHT22;8509;52.178;5.404;2023-08-24T07:55:03;26.10;99.90
16785;DHT22;8509;52.178;5.404;2023-08-24T07:57:30;26.50;99.90
16785;DHT22;8509;52.178;5.404;2023-08-24T07:59:57;26.70;99.90
16785;DHT22;8509;52.178;5.404;2023-08-24T08:02:23;26.70;99.90
16785;DHT22;8509;52.178;5.404;2023-08-24T08:04:49;27.00;99.90
16785;DHT22;8509;52.178;5.404;2023-08-24T08:07:15;27.40;99.90
16785;DHT22;8509;52.178;5.404;2023-08-24T08:09:42;27.60;99.90
16785;DHT22;8509;52.178;5.404;2023-08-24T08:12:08;27.70;99.90
16785;DHT22;8509;52.178;5.404;2023-08-24T08:14:35;27.60;99.90
16785;DHT22;8509;52.178;5.404;2023-08-24T08:17:01;27.60;99.90
16785;DHT22;8509;52.178;5.404;2023-08-24T08:19:26;27.70;99.90
16785;DHT22;8509;52.178;5.404;2023-08-24T08:21:53;28.00;99.90
16785;DHT22;8509;52.178;5.404;2023-08-24T08:24:19;27.90;99.90
16785;DHT22;8509;52.178;5.404;2023-08-24T08:26:45;27.60;99.90
16785;DHT22;8509;52.178;5.404;2023-08-24T08:29:10;27.30;99.90
16785;DHT22;8509;52.178;5.404;2023-08-24T08:31:36;27.20;99.90
16785;DHT22;8509;52.178;5.404;2023-08-24T08:34:02;27.20;99.90
16785;DHT22;8509;52.178;5.404;2023-08-24T08:36:31;27.30;99.90
16785;DHT22;8509;52.178;5.404;2023-08-24T08:39:00;27.50;99.90
16785;DHT22;8509;52.178;5.404;2023-08-24T08:41:30;27.70;99.90
16785;DHT22;8509;52.178;5.404;2023-08-24T08:43:59;27.80;99.90
16785;DHT22;8509;52.178;5.404;2023-08-24T08:46:25;27.90;99.90
16785;DHT22;8509;52.178;5.404;2023-08-24T08:48:52;28.10;99.90
16785;DHT22;8509;52.178;5.404;2023-08-24T08:51:19;28.30;99.90
16785;DHT22;8509;52.178;5.404;2023-08-24T08:53:45;28.40;99.90
16785;DHT22;8509;52.178;5.404;2023-08-24T08:56:11;28.40;99.90
16785;DHT22;8509;52.178;5.404;2023-08-24T08:58:37;28.40;99.90
16785;DHT22;8509;52.178;5.404;2023-08-24T09:01:03;28.40;99.90
16785;DHT22;8509;52.178;5.404;2023-08-24T09:03:31;28.50;99.90
16785;DHT22;8509;52.178;5.404;2023-08-24T09:05:59;28.50;99.90
16785;DHT22;8509;52.178;5.404;2023-08-24T09:08:28;28.60;99.90
16785;DHT22;8509;52.178;5.404;2023-08-24T09:10:54;28.50;99.90
16785;DHT22;8509;52.178;5.404;2023-08-24T09:13:21;28.30;99.90
16785;DHT22;8509;52.178;5.404;2023-08-24T09:15:46;28.40;99.90
16785;DHT22;8509;52.178;5.404;2023-08-24T09:18:12;28.40;99.90
16785;DHT22;8509;52.178;5.404;2023-08-24T09:20:38;28.30;99.90
16785;DHT22;8509;52.178;5.404;2023-08-24T09:23:03;28.30;99.90
16785;DHT22;8509;52.178;5.404;2023-08-24T09:25:29;28.50;99.90
16785;DHT22;8509;52.178;5.404;2023-08-24T09:28:03;28.60;99.90
16785;DHT22;8509;52.178;5.404;2023-08-24T09:30:36;28.90;99.90
16785;DHT22;8509;52.178;5.404;2023-08-24T09:33:04;29.20;99.90
16785;DHT22;8509;52.178;5.404;2023-08-24T09:35:35;29.40;99.90
16785;DHT22;8509;52.178;5.404;2023-08-24T09:38:18;29.80;99.90
16785;DHT22;8509;52.178;5.404;2023-08-24T09:40:50;29.90;99.90
16785;DHT22;8509;52.178;5.404;2023-08-24T09:43:16;29.90;99.90
16785;DHT22;8509;52.178;5.404;2023-08-24T09:45:49;30.10;99.90
16785;DHT22;8509;52.178;5.404;2023-08-24T09:48:19;30.20;99.90
16785;DHT22;8509;52.178;5.404;2023-08-24T09:50:45;30.50;99.90
16785;DHT22;8509;52.178;5.404;2023-08-24T09:53:17;30.80;99.90
16785;DHT22;8509;52.178;5.404;2023-08-24T09:56:01;30.60;99.90
16785;DHT22;8509;52.178;5.404;2023-08-24T09:58:28;30.60;99.90
16785;DHT22;8509;52.178;5.404;2023-08-24T10:00:54;30.80;99.90
16785;DHT22;8509;52.178;5.404;2023-08-24T10:03:25;31.10;99.90
16785;DHT22;8509;52.178;5.404;2023-08-24T10:05:53;31.00;99.90
16785;DHT22;8509;52.178;5.404;2023-08-24T10:08:54;31.00;99.90
16785;DHT22;8509;52.178;5.404;2023-08-24T10:11:24;30.80;99.90
16785;DHT22;8509;52.178;5.404;2023-08-24T10:16:23;30.60;99.90
16785;DHT22;8509;52.178;5.404;2023-08-24T10:18:50;30.30;99.90
16785;DHT22;8509;52.178;5.404;2023-08-24T10:21:17;30.00;99.90
16785;DHT22;8509;52.178;5.404;2023-08-24T10:23:45;29.60;99.90
16785;DHT22;8509;52.178;5.404;2023-08-24T10:26:12;29.10;99.90
16785;DHT22;8509;52.178;5.404;2023-08-24T10:28:39;29.10;99.90
16785;DHT22;8509;52.178;5.404;2023-08-24T10:31:05;28.90;99.90
16785;DHT22;8509;52.178;5.404;2023-08-24T10:33:32;28.60;99.90
16785;DHT22;8509;52.178;5.404;2023-08-24T10:35:59;28.40;99.90
16785;DHT22;8509;52.178;5.404;2023-08-24T10:38:26;28.10;99.90
16785;DHT22;8509;52.178;5.404;2023-08-24T10:40:52;27.90;99.90
16785;DHT22;8509;52.178;5.404;2023-08-24T10:43:18;27.60;99.90
16785;DHT22;8509;52.178;5.404;2023-08-24T10:48:24;27.30;99.90
16785;DHT22;8509;52.178;5.404;2023-08-24T10:53:58;27.10;99.90
16785;DHT22;8509;52.178;5.404;2023-08-24T10:56:53;27.10;99.90
16785;DHT22;8509;52.178;5.404;2023-08-24T10:59:19;27.00;99.90
16785;DHT22;8509;52.178;5.404;2023-08-24T11:01:55;27.00;99.90
16785;DHT22;8509;52.178;5.404;2023-08-24T11:04:21;27.10;99.90
16785;DHT22;8509;52.178;5.404;2023-08-24T11:06:56;27.30;99.90
16785;DHT22;8509;52.178;5.404;2023-08-24T11:09:24;27.50;99.90
16785;DHT22;8509;52.178;5.404;2023-08-24T11:12:03;27.70;99.90
16785;DHT22;8509;52.178;5.404;2023-08-24T11:14:30;27.90;99.90
16785;DHT22;8509;52.178;5.404;2023-08-24T11:17:01;27.80;99.90
16785;DHT22;8509;52.178;5.404;2023-08-24T11:19:51;27.70;99.90
16785;DHT22;8509;52.178;5.404;2023-08-24T11:22:17;27.60;99.90
16785;DHT22;8509;52.178;5.404;2023-08-24T11:24:44;27.40;99.90
16785;DHT22;8509;52.178;5.404;2023-08-24T11:27:10;27.40;99.90
16785;DHT22;8509;52.178;5.404;2023-08-24T11:29:35;27.40;99.90
16785;DHT22;8509;52.178;5.404;2023-08-24T11:32:02;27.60;99.90
16785;DHT22;8509;52.178;5.404;2023-08-24T11:34:28;27.80;99.90
16785;DHT22;8509;52.178;5.404;2023-08-24T11:36:54;28.00;99.90
16785;DHT22;8509;52.178;5.404;2023-08-24T11:39:22;28.20;99.90
16785;DHT22;8509;52.178;5.404;2023-08-24T11:42:02;28.40;99.90
16785;DHT22;8509;52.178;5.404;2023-08-24T11:44:29;28.60;99.90
16785;DHT22;8509;52.178;5.404;2023-08-24T11:46:58;28.70;99.90
16785;DHT22;8509;52.178;5.404;2023-08-24T11:49:24;28.70;99.90
16785;DHT22;8509;52.178;5.404;2023-08-24T11:51:51;28.90;99.90
16785;DHT22;8509;52.178;5.404;2023-08-24T11:54:20;29.00;99.90
16785;DHT22;8509;52.178;5.404;2023-08-24T11:56:46;29.00;99.90
16785;DHT22;8509;52.178;5.404;2023-08-24T11:59:16;29.00;99.90
16785;DHT22;8509;52.178;5.404;2023-08-24T12:01:43;29.00;99.90
16785;DHT22;8509;52.178;5.404;2023-08-24T12:04:09;29.10;99.90
16785;DHT22;8509;52.178;5.404;2023-08-24T12:06:36;29.20;99.90
16785;DHT22;8509;52.178;5.404;2023-08-24T12:09:04;29.40;99.90
16785;DHT22;8509;52.178;5.404;2023-08-24T12:11:37;29.40;99.90
16785;DHT22;8509;52.178;5.404;2023-08-24T12:14:05;29.20;99.90
16785;DHT22;8509;52.178;5.404;2023-08-24T12:16:33;29.30;99.90
16785;DHT22;8509;52.178;5.404;2023-08-24T12:19:00;29.60;99.90
16785;DHT22;8509;52.178;5.404;2023-08-24T12:21:28;29.80;99.90
16785;DHT22;8509;52.178;5.404;2023-08-24T12:24:15;30.10;99.90
16785;DHT22;8509;52.178;5.404;2023-08-24T12:26:40;30.40;99.90
16785;DHT22;8509;52.178;5.404;2023-08-24T12:29:08;30.50;99.90
16785;DHT22;8509;52.178;5.404;2023-08-24T12:31:34;30.50;99.90
16785;DHT22;8509;52.178;5.404;2023-08-24T12:34:07;30.30;99.90
16785;DHT22;8509;52.178;5.404;2023-08-24T12:36:37;30.20;99.90
16785;DHT22;8509;52.178;5.404;2023-08-24T12:39:04;30.10;99.90
16785;DHT22;8509;52.178;5.404;2023-08-24T12:41:30;30.10;99.90
16785;DHT22;8509;52.178;5.404;2023-08-24T12:43:56;29.90;99.90
16785;DHT22;8509;52.178;5.404;2023-08-24T12:46:22;30.00;99.90
16785;DHT22;8509;52.178;5.404;2023-08-24T12:48:49;30.00;99.90
16785;DHT22;8509;52.178;5.404;2023-08-24T12:51:15;29.90;99.90
16785;DHT22;8509;52.178;5.404;2023-08-24T12:53:41;29.90;99.90
16785;DHT22;8509;52.178;5.404;2023-08-24T12:56:07;29.80;99.90
16785;DHT22;8509;52.178;5.404;2023-08-24T12:58:32;29.80;99.90
16785;DHT22;8509;52.178;5.404;2023-08-24T13:00:59;29.70;99.90
16785;DHT22;8509;52.178;5.404;2023-08-24T13:03:25;29.60;99.90
16785;DHT22;8509;52.178;5.404;2023-08-24T13:05:50;29.60;99.90
16785;DHT22;8509;52.178;5.404;2023-08-24T13:08:17;29.60;99.90
16785;DHT22;8509;52.178;5.404;2023-08-24T13:10:43;29.70;99.90
16785;DHT22;8509;52.178;5.404;2023-08-24T13:13:08;29.50;99.90
16785;DHT22;8509;52.178;5.404;2023-08-24T13:15:34;29.50;99.90
16785;DHT22;8509;52.178;5.404;2023-08-24T13:18:00;29.60;99.90
16785;DHT22;8509;52.178;5.404;2023-08-24T13:20:26;29.60;99.90
16785;DHT22;8509;52.178;5.404;2023-08-24T13:22:52;29.50;99.90
16785;DHT22;8509;52.178;5.404;2023-08-24T13:25:18;29.60;99.90
16785;DHT22;8509;52.178;5.404;2023-08-24T13:27:44;29.70;99.90
16785;DHT22;8509;52.178;5.404;2023-08-24T13:30:10;29.90;99.90
16785;DHT22;8509;52.178;5.404;2023-08-24T13:32:36;30.10;99.90
16785;DHT22;8509;52.178;5.404;2023-08-24T13:35:02;30.30;99.90
16785;DHT22;8509;52.178;5.404;2023-08-24T13:37:29;30.50;99.90
16785;DHT22;8509;52.178;5.404;2023-08-24T13:39:55;30.60;99.90
16785;DHT22;8509;52.178;5.404;2023-08-24T13:42:21;30.80;99.90
16785;DHT22;8509;52.178;5.404;2023-08-24T13:44:47;30.80;99.90
16785;DHT22;8509;52.178;5.404;2023-08-24T13:47:13;30.90;99.90
16785;DHT22;8509;52.178;5.404;2023-08-24T13:49:38;30.80;99.90
16785;DHT22;8509;52.178;5.404;2023-08-24T13:52:04;30.80;99.90
16785;DHT22;8509;52.178;5.404;2023-08-24T13:54:30;30.80;99.90
16785;DHT22;8509;52.178;5.404;2023-08-24T13:56:56;30.60;99.90
16785;DHT22;8509;52.178;5.404;2023-08-24T13:59:22;30.60;99.90
16785;DHT22;8509;52.178;5.404;2023-08-24T14:01:48;30.70;99.90
16785;DHT22;8509;52.178;5.404;2023-08-24T14:04:14;30.70;99.90
16785;DHT22;8509;52.178;5.404;2023-08-24T14:06:39;30.50;99.90
16785;DHT22;8509;52.178;5.404;2023-08-24T14:09:06;30.40;99.90
16785;DHT22;8509;52.178;5.404;2023-08-24T14:11:32;30.30;99.90
16785;DHT22;8509;52.178;5.404;2023-08-24T14:13:58;30.30;99.90
16785;DHT22;8509;52.178;5.404;2023-08-24T14:16:25;30.30;99.90
16785;DHT22;8509;52.178;5.404;2023-08-24T14:18:52;30.10;99.90
16785;DHT22;8509;52.178;5.404;2023-08-24T14:21:18;30.00;99.90
16785;DHT22;8509;52.178;5.404;2023-08-24T14:23:46;30.00;99.90
16785;DHT22;8509;52.178;5.404;2023-08-24T14:26:11;30.00;99.90
16785;DHT22;8509;52.178;5.404;2023-08-24T14:28:48;29.70;99.90
16785;DHT22;8509;52.178;5.404;2023-08-24T14:31:15;29.60;99.90
16785;DHT22;8509;52.178;5.404;2023-08-24T14:33:41;29.60;99.90
16785;DHT22;8509;52.178;5.404;2023-08-24T14:36:07;29.50;99.90
16785;DHT22;8509;52.178;5.404;2023-08-24T14:38:32;29.40;99.90
16785;DHT22;8509;52.178;5.404;2023-08-24T14:40:58;29.40;99.90
16785;DHT22;8509;52.178;5.404;2023-08-24T14:43:28;29.30;99.90
16785;DHT22;8509;52.178;5.404;2023-08-24T14:45:54;29.10;99.90
16785;DHT22;8509;52.178;5.404;2023-08-24T14:48:20;29.00;99.90
16785;DHT22;8509;52.178;5.404;2023-08-24T14:50:45;28.80;99.90
16785;DHT22;8509;52.178;5.404;2023-08-24T14:53:11;28.80;99.90
16785;DHT22;8509;52.178;5.404;2023-08-24T14:55:40;28.70;99.90
16785;DHT22;8509;52.178;5.404;2023-08-24T14:58:06;28.60;99.90
16785;DHT22;8509;52.178;5.404;2023-08-24T15:00:33;28.40;99.90
16785;DHT22;8509;52.178;5.404;2023-08-24T15:02:59;28.30;99.90
16785;DHT22;8509;52.178;5.404;2023-08-24T15:05:24;28.20;99.90
16785;DHT22;8509;52.178;5.404;2023-08-24T15:07:50;28.10;99.90
16785;DHT22;8509;52.178;5.404;2023-08-24T15:10:17;28.00;99.90
16785;DHT22;8509;52.178;5.404;2023-08-24T15:12:45;28.10;99.90
16785;DHT22;8509;52.178;5.404;2023-08-24T15:15:10;28.00;99.90
16785;DHT22;8509;52.178;5.404;2023-08-24T15:17:36;28.00;99.90
16785;DHT22;8509;52.178;5.404;2023-08-24T15:20:02;28.00;99.90
16785;DHT22;8509;52.178;5.404;2023-08-24T15:22:32;28.00;99.90
16785;DHT22;8509;52.178;5.404;2023-08-24T15:24:58;28.00;99.90
16785;DHT22;8509;52.178;5.404;2023-08-24T15:27:25;28.00;99.90
16785;DHT22;8509;52.178;5.404;2023-08-24T15:29:51;28.10;99.90
16785;DHT22;8509;52.178;5.404;2023-08-24T15:32:17;28.00;99.90
16785;DHT22;8509;52.178;5.404;2023-08-24T15:34:43;28.10;99.90
16785;DHT22;8509;52.178;5.404;2023-08-24T15:37:09;28.10;99.90
16785;DHT22;8509;52.178;5.404;2023-08-24T15:39:39;28.20;99.90
16785;DHT22;8509;52.178;5.404;2023-08-24T15:42:05;28.30;99.90
16785;DHT22;8509;52.178;5.404;2023-08-24T15:44:32;28.30;99.90
16785;DHT22;8509;52.178;5.404;2023-08-24T15:46:59;28.40;99.90
16785;DHT22;8509;52.178;5.404;2023-08-24T15:49:25;28.50;99.90
16785;DHT22;8509;52.178;5.404;2023-08-24T15:51:53;28.60;99.90
16785;DHT22;8509;52.178;5.404;2023-08-24T15:54:19;28.70;99.90